createdAt,value
2023-04-14T00:02:07.132Z,7.80
2023-04-14T00:04:36.386Z,7.80
2023-04-14T00:07:05.892Z,7.80
2023-04-14T00:09:36.194Z,7.80
2023-04-14T00:12:04.394Z,7.90
2023-04-14T00:14:33.515Z,7.90
2023-04-14T00:17:01.807Z,7.80
2023-04-14T00:19:30.542Z,7.80
2023-04-14T00:21:58.861Z,7.80
2023-04-14T00:24:27.958Z,7.80
2023-04-14T00:26:58.004Z,7.80
2023-04-14T00:29:26.712Z,7.80
2023-04-14T00:31:55.001Z,7.80
2023-04-14T00:34:23.592Z,7.70
2023-04-14T00:36:52.074Z,7.80
2023-04-14T00:39:20.715Z,7.70
2023-04-14T00:41:50.194Z,7.70
2023-04-14T00:44:20.172Z,7.70
2023-04-14T00:46:48.996Z,7.70
2023-04-14T00:49:18.363Z,7.70
2023-04-14T00:51:48.075Z,7.70
2023-04-14T00:54:19.228Z,7.80
2023-04-14T00:56:48.119Z,7.70
2023-04-14T00:59:19.503Z,7.70
2023-04-14T01:01:49.161Z,7.70
2023-04-14T01:04:22.535Z,7.60
2023-04-14T01:06:51.027Z,7.60
2023-04-14T01:09:19.760Z,7.60
2023-04-14T01:11:58.992Z,7.60
2023-04-14T01:14:43.137Z,7.60
2023-04-14T01:17:17.912Z,7.60
2023-04-14T01:20:04.083Z,7.60
2023-04-14T01:22:34.322Z,7.60
2023-04-14T01:25:22.622Z,7.60
2023-04-14T01:28:06.393Z,7.60
2023-04-14T01:30:53.995Z,7.50
2023-04-14T01:33:27.847Z,7.60
2023-04-14T01:35:59.981Z,7.60
2023-04-14T01:38:34.317Z,7.50
2023-04-14T01:41:06.350Z,7.50
2023-04-14T01:43:42.529Z,7.50
2023-04-14T01:46:14.133Z,7.50
2023-04-14T01:48:44.382Z,7.50
2023-04-14T01:51:14.730Z,7.50
2023-04-14T01:53:46.047Z,7.50
2023-04-14T01:56:17.430Z,7.50
2023-04-14T01:58:47.741Z,7.50
2023-04-14T02:01:17.032Z,7.50
2023-04-14T02:03:47.780Z,7.50
2023-04-14T02:06:17.761Z,7.40
2023-04-14T02:08:46.433Z,7.40
2023-04-14T02:11:17.198Z,7.40
2023-04-14T02:13:47.063Z,7.40
2023-04-14T02:16:16.666Z,7.40
2023-04-14T02:18:47.971Z,7.40
2023-04-14T02:21:18.084Z,7.40
2023-04-14T02:23:47.171Z,7.40
2023-04-14T02:26:17.969Z,7.40
2023-04-14T02:28:52.280Z,7.50
2023-04-14T02:31:24.645Z,7.50
2023-04-14T02:33:57.572Z,7.50
2023-04-14T02:36:33.136Z,7.50
2023-04-14T02:39:06.226Z,7.50
2023-04-14T02:41:36.135Z,7.50
2023-04-14T02:44:11.985Z,7.50
2023-04-14T02:46:42.005Z,7.50
2023-04-14T02:49:14.883Z,7.50
2023-04-14T02:51:46.262Z,7.50
2023-04-14T02:54:16.593Z,7.40
2023-04-14T02:56:48.767Z,7.40
2023-04-14T02:59:22.510Z,7.40
2023-04-14T03:02:06.113Z,7.40
2023-04-14T03:04:41.408Z,7.40
2023-04-14T03:07:20.542Z,7.40
2023-04-14T03:09:51.488Z,7.40
2023-04-14T03:12:21.198Z,7.40
2023-04-14T03:14:50.492Z,7.40
2023-04-14T03:17:21.224Z,7.40
2023-04-14T03:19:56.418Z,7.40
2023-04-14T03:22:27.091Z,7.40
2023-04-14T03:24:59.168Z,7.30
2023-04-14T03:27:31.856Z,7.30
2023-04-14T03:30:05.923Z,7.30
2023-04-14T03:32:41.841Z,7.30
2023-04-14T03:35:16.016Z,7.20
2023-04-14T03:37:45.875Z,7.20
2023-04-14T03:40:16.820Z,7.20
2023-04-14T03:42:48.994Z,7.10
2023-04-14T03:45:22.432Z,7.20
2023-04-14T03:47:51.144Z,7.20
2023-04-14T03:50:23.208Z,7.10
2023-04-14T03:52:55.146Z,7.10
2023-04-14T03:55:25.179Z,7.10
2023-04-14T03:57:54.863Z,7.10
2023-04-14T04:00:25.560Z,7.10
2023-04-14T04:02:55.109Z,7.10
2023-04-14T04:05:25.923Z,7.10
2023-04-14T04:07:56.584Z,7.10
2023-04-14T04:10:25.953Z,7.10
2023-04-14T04:12:56.964Z,7.10
2023-04-14T04:15:27.419Z,7.00
2023-04-14T04:17:57.212Z,7.00
2023-04-14T04:20:28.411Z,7.10
2023-04-14T04:22:59.112Z,7.00
2023-04-14T04:25:28.202Z,7.00
2023-04-14T04:28:09.113Z,7.00
2023-04-14T04:30:41.894Z,7.00
2023-04-14T04:33:12.301Z,7.00
2023-04-14T04:35:44.040Z,7.00
2023-04-14T04:38:12.366Z,7.00
2023-04-14T04:40:45.003Z,7.00
2023-04-14T04:43:20.081Z,7.00
2023-04-14T04:46:07.595Z,7.00
2023-04-14T04:48:36.754Z,7.10
2023-04-14T04:51:09.984Z,7.10
2023-04-14T04:53:38.164Z,7.10
2023-04-14T04:56:08.144Z,7.10
2023-04-14T04:58:36.400Z,7.10
2023-04-14T05:01:10.166Z,7.10
2023-04-14T05:03:38.973Z,7.20
2023-04-14T05:06:09.268Z,7.20
2023-04-14T05:08:37.556Z,7.20
2023-04-14T05:11:06.993Z,7.30
2023-04-14T05:13:35.342Z,7.30
2023-04-14T05:16:05.240Z,7.30
2023-04-14T05:18:33.913Z,7.40
2023-04-14T05:21:05.650Z,7.40
2023-04-14T05:23:36.379Z,7.40
2023-04-14T05:26:26.849Z,7.40
2023-04-14T05:28:55.375Z,7.40
2023-04-14T05:31:23.642Z,7.50
2023-04-14T05:33:52.691Z,7.50
2023-04-14T05:36:20.883Z,7.50
2023-04-14T05:38:51.624Z,7.50
2023-04-14T05:41:22.004Z,7.60
2023-04-14T05:43:51.151Z,7.60
2023-04-14T05:46:19.436Z,7.70
2023-04-14T05:48:48.382Z,7.80
2023-04-14T05:51:16.697Z,7.80
2023-04-14T05:53:45.858Z,7.90
2023-04-14T05:56:15.455Z,7.90
2023-04-14T05:58:44.376Z,8.00
2023-04-14T06:01:12.557Z,8.00
2023-04-14T06:03:41.764Z,8.10
2023-04-14T06:06:10.233Z,8.10
2023-04-14T06:08:38.487Z,8.10
2023-04-14T06:11:07.264Z,8.20
2023-04-14T06:13:36.915Z,8.30
2023-04-14T06:16:05.997Z,8.30
2023-04-14T06:18:34.319Z,8.40
2023-04-14T06:21:03.143Z,8.40
2023-04-14T06:23:32.790Z,8.40
2023-04-14T06:26:01.400Z,8.50
2023-04-14T06:28:30.389Z,8.40
2023-04-14T06:31:00.486Z,8.50
2023-04-14T06:33:29.432Z,8.50
2023-04-14T06:35:57.715Z,8.50
2023-04-14T06:38:27.413Z,8.50
2023-04-14T06:40:55.611Z,8.60
2023-04-14T06:43:24.697Z,8.60
2023-04-14T06:45:53.008Z,8.60
2023-04-14T06:48:22.996Z,8.60
2023-04-14T06:50:55.821Z,8.60
2023-04-14T06:53:25.054Z,8.60
2023-04-14T06:55:59.538Z,8.40
2023-04-14T06:58:29.308Z,8.30
2023-04-14T07:00:58.313Z,8.20
2023-04-14T07:03:29.737Z,8.30
2023-04-14T07:06:04.691Z,8.30
2023-04-14T07:08:35.522Z,8.40
2023-04-14T07:11:05.125Z,8.50
2023-04-14T07:13:34.771Z,8.60
2023-04-14T07:16:03.733Z,8.60
2023-04-14T07:18:34.250Z,8.70
2023-04-14T07:21:04.318Z,8.70
2023-04-14T07:23:34.128Z,8.80
2023-04-14T07:26:02.787Z,8.80
2023-04-14T07:28:34.138Z,8.80
2023-04-14T07:31:09.364Z,8.80
2023-04-14T07:33:40.237Z,8.80
2023-04-14T07:36:09.482Z,8.70
2023-04-14T07:38:38.206Z,8.80
2023-04-14T07:41:07.861Z,8.90
2023-04-14T07:43:37.432Z,8.80
2023-04-14T07:46:06.980Z,8.80
2023-04-14T07:48:37.147Z,8.80
2023-04-14T07:51:07.175Z,8.80
2023-04-14T07:53:40.741Z,8.70
2023-04-14T07:56:09.126Z,8.70
2023-04-14T07:58:38.210Z,8.80
2023-04-14T08:01:06.490Z,8.90
2023-04-14T08:03:37.432Z,8.90
2023-04-14T08:06:09.051Z,8.90
2023-04-14T08:08:38.163Z,9.00
2023-04-14T08:11:06.488Z,9.00
2023-04-14T08:13:34.734Z,9.10
2023-04-14T08:16:03.120Z,9.10
2023-04-14T08:18:31.873Z,9.20
2023-04-14T08:21:00.367Z,9.50
2023-04-14T08:23:30.276Z,9.70
2023-04-14T08:25:58.638Z,9.80
2023-04-14T08:28:27.248Z,9.80
2023-04-14T08:30:55.492Z,9.90
2023-04-14T08:33:24.195Z,10.00
2023-04-14T08:36:00.151Z,10.00
2023-04-14T08:38:30.868Z,10.00
2023-04-14T08:41:02.625Z,10.00
2023-04-14T08:43:31.408Z,10.10
2023-04-14T08:46:02.086Z,10.10
2023-04-14T08:48:33.361Z,10.10
2023-04-14T08:51:08.174Z,10.20
2023-04-14T08:53:43.228Z,10.50
2023-04-14T08:56:13.279Z,10.60
2023-04-14T08:58:42.109Z,10.70
2023-04-14T09:01:11.367Z,10.70
2023-04-14T09:03:41.827Z,10.90
2023-04-14T09:06:10.879Z,10.90
2023-04-14T09:08:41.104Z,11.10
2023-04-14T09:11:11.704Z,11.20
2023-04-14T09:13:41.704Z,11.20
2023-04-14T09:16:11.249Z,11.20
2023-04-14T09:18:40.263Z,11.30
2023-04-14T09:21:30.366Z,11.40
2023-04-14T09:23:59.881Z,11.50
2023-04-14T09:26:29.265Z,11.60
2023-04-14T09:28:57.510Z,11.60
2023-04-14T09:31:27.782Z,11.70
2023-04-14T09:33:56.738Z,11.70
2023-04-14T09:36:29.441Z,11.70
2023-04-14T09:38:59.059Z,11.70
2023-04-14T09:41:28.136Z,11.90
2023-04-14T09:43:56.461Z,12.10
2023-04-14T09:46:24.838Z,12.20
2023-04-14T09:48:55.262Z,12.30
2023-04-14T09:51:24.821Z,12.40
2023-04-14T09:53:54.510Z,12.40
2023-04-14T09:56:28.931Z,12.50
2023-04-14T09:59:00.706Z,12.50
2023-04-14T10:01:34.599Z,12.60
2023-04-14T10:04:03.665Z,12.60
2023-04-14T10:06:32.973Z,12.30
2023-04-14T10:09:01.712Z,12.30
2023-04-14T10:11:33.820Z,12.20
2023-04-14T10:14:03.804Z,12.20
2023-04-14T10:16:33.240Z,12.30
2023-04-14T10:19:03.013Z,12.40
2023-04-14T10:21:32.323Z,12.70
2023-04-14T10:24:01.180Z,12.70
2023-04-14T10:26:31.379Z,12.80
2023-04-14T10:29:02.212Z,12.40
2023-04-14T10:31:34.037Z,12.10
2023-04-14T10:34:09.230Z,11.60
2023-04-14T10:36:37.783Z,11.30
2023-04-14T10:39:07.810Z,11.00
2023-04-14T10:41:48.581Z,10.80
2023-04-14T10:44:28.259Z,10.80
2023-04-14T10:46:57.178Z,10.60
2023-04-14T10:49:32.762Z,10.60
2023-04-14T10:52:02.827Z,10.60
2023-04-14T10:54:49.745Z,10.50
2023-04-14T10:57:20.433Z,10.30
2023-04-14T10:59:49.164Z,10.20
2023-04-14T11:02:25.667Z,10.20
2023-04-14T11:05:05.998Z,10.10
2023-04-14T11:07:40.805Z,9.90
2023-04-14T11:10:29.384Z,9.70
2023-04-14T11:13:02.630Z,9.60
2023-04-14T11:15:48.213Z,9.40
2023-04-14T11:18:18.871Z,9.50
2023-04-14T11:20:47.295Z,9.60
2023-04-14T11:23:16.978Z,9.80
2023-04-14T11:25:45.764Z,10.00
2023-04-14T11:28:15.784Z,10.10
2023-04-14T11:30:45.050Z,10.30
2023-04-14T11:33:16.934Z,10.40
2023-04-14T11:35:45.981Z,10.50
2023-04-14T11:38:18.296Z,10.50
2023-04-14T11:40:50.473Z,10.40
2023-04-14T11:43:22.848Z,10.40
2023-04-14T11:45:52.838Z,10.30
2023-04-14T11:48:22.178Z,10.30
2023-04-14T11:50:50.443Z,10.50
2023-04-14T11:53:20.322Z,10.60
2023-04-14T11:55:50.213Z,10.60
2023-04-14T11:58:24.915Z,10.70
2023-04-14T12:00:55.717Z,10.70
2023-04-14T12:03:28.235Z,10.60
2023-04-14T12:05:58.429Z,10.40
2023-04-14T12:08:27.581Z,10.40
2023-04-14T12:10:56.398Z,10.70
2023-04-14T12:13:27.304Z,10.90
2023-04-14T12:15:55.856Z,11.10
2023-04-14T12:18:24.654Z,11.20
2023-04-14T12:20:55.153Z,11.30
2023-04-14T12:23:23.965Z,11.40
2023-04-14T12:25:52.738Z,11.50
2023-04-14T12:28:29.114Z,11.30
2023-04-14T12:31:04.121Z,11.10
2023-04-14T12:33:34.099Z,11.00
2023-04-14T12:36:04.742Z,11.00
2023-04-14T12:38:34.065Z,10.80
2023-04-14T12:41:02.516Z,10.80
2023-04-14T12:43:34.801Z,10.80
2023-04-14T12:46:04.423Z,10.80
2023-04-14T12:48:45.303Z,10.90
2023-04-14T12:51:14.947Z,11.00
2023-04-14T12:53:44.447Z,11.10
2023-04-14T12:56:14.176Z,11.20
2023-04-14T12:58:47.271Z,11.10
2023-04-14T13:01:17.070Z,11.00
2023-04-14T13:03:47.901Z,10.90
2023-04-14T13:06:18.000Z,10.90
2023-04-14T13:08:48.518Z,11.10
2023-04-14T13:11:18.357Z,11.30
2023-04-14T13:13:48.736Z,11.60
2023-04-14T13:16:18.701Z,11.60
2023-04-14T13:18:49.089Z,11.70
2023-04-14T13:21:17.679Z,11.60
2023-04-14T13:23:46.327Z,11.70
2023-04-14T13:26:14.612Z,11.80
2023-04-14T13:28:43.725Z,11.80
2023-04-14T13:31:17.244Z,11.90
2023-04-14T13:33:46.636Z,11.90
2023-04-14T13:36:14.883Z,11.90
2023-04-14T13:38:43.835Z,12.00
2023-04-14T13:41:14.371Z,11.80
2023-04-14T13:43:43.151Z,11.90
2023-04-14T13:46:12.845Z,11.90
2023-04-14T13:48:44.145Z,11.80
2023-04-14T13:51:12.364Z,11.80
2023-04-14T13:53:41.021Z,11.80
2023-04-14T13:56:09.996Z,11.80
2023-04-14T13:58:38.912Z,11.70
2023-04-14T14:01:12.900Z,11.60
2023-04-14T14:03:42.714Z,11.50
2023-04-14T14:06:11.195Z,11.60
2023-04-14T14:08:39.391Z,11.70
2023-04-14T14:11:08.746Z,11.90
2023-04-14T14:13:38.596Z,11.90
2023-04-14T14:16:07.875Z,11.80
2023-04-14T14:18:38.413Z,11.70
2023-04-14T14:21:07.236Z,11.60
2023-04-14T14:23:36.032Z,11.60
2023-04-14T14:26:04.797Z,11.70
2023-04-14T14:28:33.747Z,11.70
2023-04-14T14:31:03.013Z,11.60
2023-04-14T14:33:32.376Z,11.70
2023-04-14T14:36:02.725Z,11.70
2023-04-14T14:38:31.422Z,11.60
2023-04-14T14:41:00.199Z,11.40
2023-04-14T14:43:28.393Z,11.30
2023-04-14T14:45:56.976Z,11.10
2023-04-14T14:48:25.869Z,11.00
2023-04-14T14:50:54.046Z,11.00
2023-04-14T14:53:24.124Z,10.90
2023-04-14T14:55:52.338Z,10.80
2023-04-14T14:58:21.514Z,10.80
2023-04-14T15:00:49.734Z,10.70
2023-04-14T15:03:18.436Z,10.60
2023-04-14T15:05:47.514Z,10.50
2023-04-14T15:08:15.811Z,10.30
2023-04-14T15:10:45.407Z,10.30
2023-04-14T15:13:13.984Z,10.20
2023-04-14T15:15:42.510Z,10.20
2023-04-14T15:18:11.842Z,10.30
2023-04-14T15:20:42.243Z,10.40
2023-04-14T15:23:11.228Z,10.60
2023-04-14T15:25:39.429Z,10.50
2023-04-14T15:28:09.386Z,10.40
2023-04-14T15:30:37.563Z,10.20
2023-04-14T15:33:07.066Z,10.00
2023-04-14T15:35:38.639Z,9.90
2023-04-14T15:38:07.711Z,9.80
2023-04-14T15:40:36.313Z,9.80
2023-04-14T15:43:05.018Z,9.80
2023-04-14T15:45:34.899Z,9.90
2023-04-14T15:48:03.549Z,9.90
2023-04-14T15:50:31.866Z,9.90
2023-04-14T15:53:00.600Z,9.80
2023-04-14T15:55:28.942Z,9.70
2023-04-14T15:57:57.938Z,9.60
2023-04-14T16:00:26.381Z,9.40
2023-04-14T16:02:57.234Z,9.30
2023-04-14T16:05:25.624Z,9.20
2023-04-14T16:07:53.827Z,9.20
2023-04-14T16:10:22.480Z,9.20
2023-04-14T16:12:51.236Z,9.30
2023-04-14T16:15:19.596Z,9.30
2023-04-14T16:17:58.396Z,9.50
2023-04-14T16:20:28.839Z,9.60
2023-04-14T16:23:06.525Z,9.70
2023-04-14T16:25:43.916Z,9.70
2023-04-14T16:28:17.863Z,9.60
2023-04-14T16:30:46.866Z,9.50
2023-04-14T16:33:16.209Z,9.40
2023-04-14T16:35:45.876Z,9.30
2023-04-14T16:38:15.074Z,9.10
2023-04-14T16:40:43.282Z,9.10
2023-04-14T16:43:14.275Z,9.00
2023-04-14T16:45:42.844Z,8.90
2023-04-14T16:48:11.046Z,8.80
2023-04-14T16:50:40.951Z,8.80
2023-04-14T16:53:10.643Z,8.80
2023-04-14T16:55:39.286Z,8.70
2023-04-14T16:58:09.015Z,8.60
2023-04-14T17:00:37.319Z,8.50
2023-04-14T17:03:07.505Z,8.50
2023-04-14T17:05:36.063Z,8.40
2023-04-14T17:08:04.895Z,8.30
2023-04-14T17:10:34.430Z,8.30
2023-04-14T17:13:02.659Z,8.30
2023-04-14T17:15:31.426Z,8.20
2023-04-14T17:17:59.638Z,8.10
2023-04-14T17:20:28.771Z,8.10
2023-04-14T17:22:58.808Z,8.10
2023-04-14T17:25:27.700Z,8.00
2023-04-14T17:27:57.262Z,8.00
2023-04-14T17:30:27.217Z,8.00
2023-04-14T17:32:56.415Z,8.00
2023-04-14T17:35:25.248Z,7.90
2023-04-14T17:37:53.639Z,7.90
2023-04-14T17:40:22.467Z,7.90
2023-04-14T17:42:51.954Z,7.90
2023-04-14T17:45:23.895Z,7.80
2023-04-14T17:47:53.670Z,7.80
2023-04-14T17:50:22.905Z,7.80
2023-04-14T17:52:52.147Z,7.70
2023-04-14T17:55:21.781Z,7.70
2023-04-14T17:57:50.416Z,7.70
2023-04-14T18:00:20.039Z,7.70
2023-04-14T18:02:50.421Z,7.70
2023-04-14T18:05:19.163Z,7.70
2023-04-14T18:07:49.302Z,7.70
2023-04-14T18:10:17.943Z,7.60
2023-04-14T18:12:46.391Z,7.60
2023-04-14T18:15:15.524Z,7.50
2023-04-14T18:17:44.134Z,7.50
2023-04-14T18:20:15.947Z,7.50
2023-04-14T18:22:44.441Z,7.50
2023-04-14T18:25:12.686Z,7.50
2023-04-14T18:30:12.859Z,7.50
2023-04-14T18:32:41.300Z,7.50
2023-04-14T18:35:10.062Z,7.50
2023-04-14T18:37:40.001Z,7.50
2023-04-14T18:40:10.558Z,7.40
2023-04-14T18:42:39.115Z,7.40
2023-04-14T18:45:08.900Z,7.40
2023-04-14T18:47:40.219Z,7.40
2023-04-14T18:50:09.401Z,7.40
2023-04-14T18:52:38.959Z,7.40
2023-04-14T18:55:09.076Z,7.30
2023-04-14T18:57:38.181Z,7.30
2023-04-14T19:00:08.909Z,7.40
2023-04-14T19:02:37.723Z,7.30
2023-04-14T19:05:07.773Z,7.30
2023-04-14T19:07:36.513Z,7.30
2023-04-14T19:10:06.996Z,7.30
2023-04-14T19:12:37.860Z,7.30
2023-04-14T19:15:07.024Z,7.30
2023-04-14T19:17:35.594Z,7.30
2023-04-14T19:20:04.501Z,7.40
2023-04-14T19:22:33.221Z,7.30
2023-04-14T19:25:01.769Z,7.30
2023-04-14T19:27:33.035Z,7.30
2023-04-14T19:30:01.180Z,7.30
2023-04-14T19:32:29.807Z,7.20
2023-04-14T19:34:58.673Z,7.30
2023-04-14T19:37:27.698Z,7.30
2023-04-14T19:39:55.906Z,7.30
2023-04-14T19:42:24.505Z,7.30
2023-04-14T19:44:54.039Z,7.30
2023-04-14T19:47:22.767Z,7.30
2023-04-14T19:49:52.005Z,7.30
2023-04-14T19:52:21.108Z,7.30
2023-04-14T19:54:49.602Z,7.20
2023-04-14T19:57:18.204Z,7.20
2023-04-14T19:59:46.898Z,7.20
2023-04-14T20:02:16.580Z,7.20
2023-04-14T20:04:46.789Z,7.30
2023-04-14T20:07:15.308Z,7.30
2023-04-14T20:09:46.680Z,7.30
2023-04-14T20:12:15.455Z,7.30
2023-04-14T20:14:44.920Z,7.30
2023-04-14T20:17:13.656Z,7.30
2023-04-14T20:19:44.584Z,7.30
2023-04-14T20:22:13.491Z,7.30
2023-04-14T20:24:41.711Z,7.30
2023-04-14T20:27:09.994Z,7.20
2023-04-14T20:29:38.570Z,7.20
2023-04-14T20:32:07.677Z,7.20
2023-04-14T20:34:36.248Z,7.20
2023-04-14T20:37:06.765Z,7.20
2023-04-14T20:39:35.405Z,7.20
2023-04-14T20:42:03.956Z,7.20
2023-04-14T20:44:32.720Z,7.20
2023-04-14T20:47:01.779Z,7.20
2023-04-14T20:49:30.624Z,7.20
2023-04-14T20:52:00.370Z,7.20
2023-04-14T20:54:30.215Z,7.30
2023-04-14T20:57:03.572Z,7.30
2023-04-14T20:59:32.770Z,7.30
2023-04-14T21:02:01.494Z,7.30
2023-04-14T21:04:30.499Z,7.30
2023-04-14T21:06:58.775Z,7.30
2023-04-14T21:09:27.986Z,7.30
2023-04-14T21:12:14.636Z,7.30
2023-04-14T21:15:42.295Z,7.30
2023-04-14T21:17:34.391Z,7.30
2023-04-14T21:20:03.901Z,7.30
2023-04-14T21:22:32.417Z,7.30
2023-04-14T21:25:01.158Z,7.30
2023-04-14T21:27:30.723Z,7.30
2023-04-14T21:29:59.358Z,7.30
2023-04-14T21:32:28.405Z,7.30
2023-04-14T21:34:56.686Z,7.30
2023-04-14T21:37:25.112Z,7.30
2023-04-14T21:39:53.767Z,7.30
2023-04-14T21:42:22.207Z,7.30
2023-04-14T21:44:52.098Z,7.30
2023-04-14T21:47:20.852Z,7.30
2023-04-14T21:49:49.110Z,7.30
2023-04-14T21:52:18.390Z,7.30
2023-04-14T21:54:47.522Z,7.30
2023-04-14T21:57:15.700Z,7.30
2023-04-14T21:59:44.522Z,7.30
2023-04-14T22:02:14.716Z,7.30
2023-04-14T22:04:43.432Z,7.20
2023-04-14T22:07:12.101Z,7.20
2023-04-14T22:09:43.782Z,7.30
2023-04-14T22:12:12.964Z,7.30
2023-04-14T22:14:41.400Z,7.30
2023-04-14T22:17:11.420Z,7.30
2023-04-14T22:19:40.997Z,7.30
2023-04-14T22:22:09.492Z,7.30
2023-04-14T22:24:37.842Z,7.30
2023-04-14T22:27:06.531Z,7.30
2023-04-14T22:29:35.052Z,7.40
2023-04-14T22:32:03.298Z,7.30
2023-04-14T22:34:31.498Z,7.40
2023-04-14T22:37:01.498Z,7.40
2023-04-14T22:39:30.058Z,7.40
2023-04-14T22:41:58.567Z,7.40
2023-04-14T22:44:27.269Z,7.40
2023-04-14T22:46:56.224Z,7.30
2023-04-14T22:49:24.510Z,7.30
2023-04-14T22:51:53.305Z,7.30
2023-04-14T22:54:23.161Z,7.30
2023-04-14T22:56:52.247Z,7.30
2023-04-14T22:59:20.416Z,7.30
2023-04-14T23:01:49.219Z,7.30
2023-04-14T23:04:17.542Z,7.30
2023-04-14T23:06:47.315Z,7.30
2023-04-14T23:09:15.500Z,7.30
2023-04-14T23:11:45.432Z,7.20
2023-04-14T23:14:13.735Z,7.20
2023-04-14T23:16:42.420Z,7.30
2023-04-14T23:19:11.639Z,7.30
2023-04-14T23:21:40.739Z,7.30
2023-04-14T23:24:09.246Z,7.30
2023-04-14T23:26:37.704Z,7.30
2023-04-14T23:29:07.244Z,7.30
2023-04-14T23:31:35.958Z,7.30
2023-04-14T23:34:04.175Z,7.20
2023-04-14T23:36:33.209Z,7.20
2023-04-14T23:39:01.590Z,7.20
2023-04-14T23:41:30.825Z,7.20
2023-04-14T23:43:59.077Z,7.10
2023-04-14T23:46:29.174Z,7.10
2023-04-14T23:48:57.524Z,7.10
2023-04-14T23:51:27.923Z,7.10
2023-04-14T23:53:56.351Z,7.10
2023-04-14T23:56:26.798Z,7.20
2023-04-14T23:58:55.112Z,7.20
